M I D A S
Marine Information and Data Acquisition System
Tripno 672 of the Zeeleeuw from 2004-03-19 07:12:58 to 2004-03-19 13:07:22
Back to CruiseResearch ActivitiesStationsMapUnderway DataData graphs

EquipmentUnitsComments
TimeDGPSUTC
LatitudeDGPSDM.mWGS84
LongitudeDGPSDM.mWGS84
SpeedMeteo Stationm/sRelative wind speed
DirectionMeteo StationdegRelative wind direction
TemperatureMeteo Stationdeg CelciusAir temperature
PressureMeteo StationPaAtmospheric pressure
HumidityMeteo Station%Relative humidity
Missing or incorrect values are displayed as -999
Metereological data collected by the RV Zeeleeuw from 2004-03-19 07:12:58 to 2004-03-19 13:07:22
Time Latitude Longitude Speed Direction Temperature Pressure Humidity
2004-03-19 07:13 51°13.605 2°56.055 3.7 97 8.4 101690 87
2004-03-19 07:14 51°13.58 2°56.111 4.8 88 8.4 101690 87
2004-03-19 07:15 51°13.538 2°56.192 2.8 230 8.5 101690 87
2004-03-19 07:16 51°13.538 2°56.248 4.4 137 8.5 101680 87
2004-03-19 07:17 51°13.536 2°56.232 2.3 149 8.5 101690 87
2004-03-19 07:18 51°13.534 2°56.238 3.4 219 8.6 101690 87
2004-03-19 07:19 51°13.536 2°56.232 3.2 199 8.7 101680 86
2004-03-19 07:20 51°13.532 2°56.237 3.7 42 8.8 101690 86
2004-03-19 07:21 51°13.539 2°56.214 3.4 235 8.7 101680 85
2004-03-19 07:22 51°13.551 2°56.178 2.7 40 8.7 101680 85
2004-03-19 07:23 51°13.563 2°56.144 3.6 242 8.6 101680 85
2004-03-19 07:24 51°13.573 2°56.111 1.4 311 8.6 101670 85
2004-03-19 07:25 51°13.585 2°56.073 4.7 274 8.7 101650 85
2004-03-19 07:26 51°13.599 2°56.037 6 273 8.7 101660 85
2004-03-19 07:28 51°13.616 2°55.999 6.1 270 8.6 101640 85
2004-03-19 07:28 51°13.644 2°55.931 3 238 8.6 101640 85
2004-03-19 07:29 51°13.692 2°55.821 6.7 271 8.6 101640 85
2004-03-19 07:30 51°13.773 2°55.683 3.6 295 8.6 101640 85
2004-03-19 07:31 51°13.888 2°55.585 2.4 229 8.7 101640 85
2004-03-19 07:32 51°14.008 2°55.5 4 280 8.7 101640 85
2004-03-19 07:33 51°14.15 2°55.396 3.2 40 8.7 101640 85
2004-03-19 07:34 51°14.287 2°55.221 9.9 314 8.7 101630 84
2004-03-19 07:35 51°14.4 2°54.98 14.9 230 8.7 101640 84
2004-03-19 07:36 51°14.423 2°54.641 15.6 336 8.7 101610 84
2004-03-19 07:37 51°14.335 2°54.305 16.5 350 8.7 101600 84
2004-03-19 07:38 51°14.207 2°53.994 16.6 347 8.7 101610 84
2004-03-19 07:39 51°14.083 2°53.675 17.6 349 8.7 101610 83
2004-03-19 07:40 51°13.962 2°53.348 17.9 348 8.7 101600 83
2004-03-19 07:41 51°13.851 2°53.01 17.2 348 8.7 101600 83
2004-03-19 07:42 51°13.737 2°52.672 17.5 349 8.7 101600 83
2004-03-19 07:43 51°13.623 2°52.332 15.2 344 8.7 101590 83
2004-03-19 07:44 51°13.507 2°51.992 16.2 342 8.7 101590 83
2004-03-19 07:45 51°13.392 2°51.654 18.2 342 8.7 101580 83
2004-03-19 07:46 51°13.277 2°51.316 17.9 344 8.6 101590 83
2004-03-19 07:47 51°13.164 2°50.974 18 345 8.7 101590 83
2004-03-19 07:48 51°13.05 2°50.634 16.7 345 8.7 101590 83
2004-03-19 07:49 51°12.938 2°50.293 18.1 347 8.8 101580 82
2004-03-19 07:50 51°12.826 2°49.953 17.4 348 8.8 101580 82
2004-03-19 07:51 51°12.714 2°49.613 17.9 342 8.9 101570 82
2004-03-19 07:52 51°12.605 2°49.273 18.2 346 8.9 101570 81
2004-03-19 07:53 51°12.494 2°48.937 18.2 341 8.9 101570 81
2004-03-19 07:54 51°12.38 2°48.594 18.9 344 8.9 101560 81
2004-03-19 07:55 51°12.268 2°48.253 17.4 341 8.9 101550 81
2004-03-19 07:56 51°12.158 2°47.915 19.5 346 9 101550 81
2004-03-19 07:57 51°12.049 2°47.578 18.6 342 9 101560 80
2004-03-19 07:58 51°11.939 2°47.241 19 345 9 101550 80
2004-03-19 07:59 51°11.843 2°46.894 17.5 345 9 101550 80
2004-03-19 08:00 51°11.749 2°46.546 17.9 338 9 101550 80
2004-03-19 08:01 51°11.656 2°46.197 18.4 340 9 101540 80
2004-03-19 08:02 51°11.562 2°45.848 16.1 344 8.9 101550 81
2004-03-19 08:03 51°11.468 2°45.498 16.3 341 9 101540 80
2004-03-19 08:04 51°11.374 2°45.149 16 337 9 101540 81
2004-03-19 08:05 51°11.28 2°44.799 19.2 336 8.9 101550 81
2004-03-19 08:06 51°11.187 2°44.451 16.3 338 8.9 101540 81
2004-03-19 08:07 51°11.094 2°44.102 17.5 338 9 101530 80
2004-03-19 08:08 51°11.002 2°43.755 18.4 337 9 101530 80
2004-03-19 08:09 51°10.909 2°43.407 18.3 335 9 101530 80
2004-03-19 08:10 51°10.817 2°43.06 17.8 338 9 101530 80
2004-03-19 08:11 51°10.723 2°42.713 16.8 344 9 101530 80
2004-03-19 08:12 51°10.632 2°42.368 19.5 340 9 101530 80
2004-03-19 08:13 51°10.544 2°42.022 18.9 336 9 101500 80
2004-03-19 08:14 51°10.461 2°41.673 16.7 337 9 101530 80
2004-03-19 08:15 51°10.377 2°41.326 18.8 342 9 101510 80
2004-03-19 08:16 51°10.294 2°40.981 17.6 337 9.1 101500 80
2004-03-19 08:17 51°10.212 2°40.635 19.9 336 9.1 101510 80
2004-03-19 08:18 51°10.131 2°40.29 17.3 337 9.1 101510 80
2004-03-19 08:19 51°10.048 2°39.946 16.8 333 9.1 101500 80
2004-03-19 08:20 51°9.966 2°39.602 16.8 337 9.1 101490 80
2004-03-19 08:21 51°9.884 2°39.258 16.9 331 9.1 101500 80
2004-03-19 08:22 51°9.803 2°38.914 18.5 335 9.1 101490 80
2004-03-19 08:23 51°9.722 2°38.571 16.6 334 9.2 101480 80
2004-03-19 08:24 51°9.641 2°38.227 19.1 334 9.2 101480 80
2004-03-19 08:25 51°9.561 2°37.884 17.9 337 9.2 101460 80
2004-03-19 08:26 51°9.48 2°37.541 19.1 337 9.2 101470 80
2004-03-19 08:27 51°9.399 2°37.199 20.4 338 9.2 101460 79
2004-03-19 08:28 51°9.318 2°36.856 18.2 334 9.2 101470 80
2004-03-19 08:29 51°9.24 2°36.514 17.8 337 9.2 101460 80
2004-03-19 08:30 51°9.161 2°36.175 17.7 340 9.2 101460 80
2004-03-19 08:31 51°9.075 2°35.84 18.5 338 9.2 101440 80
2004-03-19 08:32 51°8.99 2°35.505 19 334 9.2 101440 80
2004-03-19 08:33 51°8.904 2°35.169 21.8 337 9.2 101420 80
2004-03-19 08:34 51°8.818 2°34.833 21.1 336 9.3 101420 79
2004-03-19 08:35 51°8.733 2°34.499 18.1 336 9.3 101430 79
2004-03-19 08:36 51°8.648 2°34.166 19.9 338 9.3 101430 79
2004-03-19 08:37 51°8.556 2°33.84 20.5 333 9.3 101430 79
2004-03-19 08:38 51°8.463 2°33.514 19.6 336 9.3 101440 79
2004-03-19 08:39 51°8.372 2°33.188 21.2 339 9.3 101440 79
2004-03-19 08:40 51°8.295 2°32.966 15.6 345 9.4 101480 79
2004-03-19 08:41 51°8.285 2°32.933 12.7 280 9.3 101440 79
2004-03-19 08:42 51°8.293 2°32.951 10.8 257 9.3 101430 79
2004-03-19 08:43 51°8.313 2°32.941 8.2 257 9.3 101440 79
2004-03-19 08:44 51°8.339 2°32.922 10.4 249 9.3 101440 80
2004-03-19 08:45 51°8.366 2°32.906 8.3 252 9.3 101430 80
2004-03-19 08:46 51°8.392 2°32.893 9.3 249 9.2 101430 80
2004-03-19 08:47 51°8.419 2°32.881 10.1 250 9.3 101420 80
2004-03-19 08:48 51°8.446 2°32.866 9.4 253 9.3 101420 79
2004-03-19 08:49 51°8.471 2°32.851 13.2 258 9.3 101420 79
2004-03-19 08:50 51°8.496 2°32.842 10.2 246 9.3 101420 79
2004-03-19 08:51 51°8.52 2°32.833 10.3 242 9.3 101410 80
2004-03-19 08:52 51°8.548 2°32.827 13.3 243 9.2 101410 80
2004-03-19 08:53 51°8.578 2°32.82 11.6 246 9.3 101410 80
2004-03-19 08:54 51°8.609 2°32.813 8.8 252 9.3 101400 80
2004-03-19 08:55 51°8.64 2°32.806 10.5 250 9.3 101410 80
2004-03-19 08:56 51°8.67 2°32.802 9.8 249 9.3 101390 80
2004-03-19 08:57 51°8.701 2°32.798 11.1 240 9.2 101400 80
2004-03-19 08:58 51°8.733 2°32.795 9.8 254 9.2 101400 80
2004-03-19 08:59 51°8.8 2°32.805 8.3 195 9.2 101430 81
2004-03-19 09:00 51°8.92 2°32.963 5.3 151 9.2 101420 80
2004-03-19 09:01 51°9.101 2°33.207 3.2 180 9.3 101410 80
2004-03-19 09:02 51°9.285 2°33.465 4.8 146 9.2 101420 80
2004-03-19 09:03 51°9.464 2°33.733 5 136 9.2 101420 80
2004-03-19 09:04 51°9.642 2°34.005 5.5 157 9.2 101420 80
2004-03-19 09:05 51°9.822 2°34.272 5.6 155 9.2 101410 80
2004-03-19 09:06 51°10.001 2°34.543 6.5 155 9.2 101420 80
2004-03-19 09:07 51°10.18 2°34.813 5 167 9.3 101410 80
2004-03-19 09:08 51°10.365 2°35.068 6.2 177 9.3 101410 80
2004-03-19 09:09 51°10.555 2°35.312 5.2 165 9.4 101420 80
2004-03-19 09:10 51°10.751 2°35.544 5.7 163 9.6 101420 79
2004-03-19 09:11 51°10.944 2°35.792 4.9 160 9.5 101420 79
2004-03-19 09:12 51°11.143 2°36.026 5.4 176 9.5 101410 79
2004-03-19 09:13 51°11.34 2°36.256 5.6 177 9.5 101410 79
2004-03-19 09:14 51°11.534 2°36.489 6.3 177 9.5 101410 79
2004-03-19 09:15 51°11.73 2°36.72 5.1 170 9.5 101410 79
2004-03-19 09:16 51°11.927 2°36.947 3.5 207 9.5 101410 79
2004-03-19 09:17 51°12.124 2°37.174 6 166 9.5 101410 79
2004-03-19 09:18 51°12.32 2°37.403 5.9 170 9.4 101400 79
2004-03-19 09:19 51°12.518 2°37.625 5 212 9.5 101390 79
2004-03-19 09:20 51°12.711 2°37.858 4.8 180 9.8 101390 78
2004-03-19 09:21 51°12.905 2°38.087 8.9 164 9.6 101370 78
2004-03-19 09:22 51°13.101 2°38.321 6.1 171 9.5 101370 78
2004-03-19 09:23 51°13.301 2°38.557 4 174 9.7 101370 78
2004-03-19 09:24 51°13.501 2°38.791 4.3 175 9.6 101360 78
2004-03-19 09:25 51°13.707 2°38.974 6.9 223 9.5 101360 79
2004-03-19 09:26 51°13.933 2°39.061 8.5 240 9.4 101340 78
2004-03-19 09:27 51°14.121 2°38.913 15.9 293 9.3 101310 79
2004-03-19 09:28 51°14.249 2°38.648 15.3 303 9.3 101310 79
2004-03-19 09:29 51°14.248 2°38.324 18.9 333 9.2 101290 79
2004-03-19 09:30 51°14.197 2°38 18.8 333 9.2 101270 79
2004-03-19 09:31 51°14.148 2°37.68 21.1 329 9.2 101250 79
2004-03-19 09:32 51°14.103 2°37.364 21.2 327 9.3 101260 79
2004-03-19 09:33 51°14.056 2°37.053 21.2 331 9.2 101280 79
2004-03-19 09:34 51°14.01 2°36.745 21 331 9.2 101280 79
2004-03-19 09:35 51°13.965 2°36.439 21.3 327 9.2 101270 79
2004-03-19 09:36 51°13.918 2°36.133 20.3 334 9.2 101270 79
2004-03-19 09:37 51°13.869 2°35.828 21.3 332 9.2 101260 79
2004-03-19 09:38 51°13.821 2°35.525 21.8 330 9.1 101280 80
2004-03-19 09:39 51°13.773 2°35.218 20.4 335 9 101270 81
2004-03-19 09:40 51°13.725 2°34.914 22.3 335 9 101290 80
2004-03-19 09:41 51°13.673 2°34.608 23.5 334 9.1 101290 80
2004-03-19 09:42 51°13.623 2°34.297 22 333 9.1 101280 80
2004-03-19 09:43 51°13.577 2°33.987 18.8 336 9.2 101270 79
2004-03-19 09:44 51°13.53 2°33.676 25 337 9.3 101260 78
2004-03-19 09:45 51°13.481 2°33.363 20.4 339 9.4 101280 77
2004-03-19 09:46 51°13.433 2°33.049 20.3 336 9.4 101260 77
2004-03-19 09:47 51°13.387 2°32.737 22 340 9.5 101260 76
2004-03-19 09:48 51°13.341 2°32.424 18.7 341 9.5 101270 76
2004-03-19 09:49 51°13.299 2°32.116 21 337 9.4 101280 77
2004-03-19 09:50 51°13.26 2°31.814 19.7 331 9.4 101260 77
2004-03-19 09:51 51°13.223 2°31.514 20.4 335 9.4 101270 77
2004-03-19 09:52 51°13.19 2°31.249 17.3 327 9.4 101270 77
2004-03-19 09:53 51°13.18 2°31.095 16.7 328 9.4 101270 77
2004-03-19 09:54 51°13.15 2°30.985 19 355 9.4 101270 77
2004-03-19 09:55 51°13.101 2°30.887 16.5 338 9.4 101280 76
2004-03-19 09:56 51°13.097 2°30.882 14.9 341 9.4 101290 76
2004-03-19 09:57 51°13.117 2°30.916 13.5 321 9.4 101290 77
2004-03-19 09:58 51°13.14 2°30.972 12.8 280 9.3 101270 77
2004-03-19 09:59 51°13.173 2°31.009 14.1 262 9.3 101260 76
2004-03-19 10:00 51°13.218 2°31.018 17.3 265 9.4 101220 76
2004-03-19 10:01 51°13.256 2°31.03 15.7 265 9.3 101230 76
2004-03-19 10:02 51°13.29 2°31.046 15.2 260 9.3 101220 76
2004-03-19 10:03 51°13.327 2°31.066 10.3 255 9.3 101210 76
2004-03-19 10:04 51°13.365 2°31.088 12.8 241 9.3 101200 76
2004-03-19 10:05 51°13.409 2°31.112 14.8 238 9.4 101200 76
2004-03-19 10:06 51°13.457 2°31.141 17.5 239 9.4 101170 75
2004-03-19 10:07 51°13.505 2°31.17 13 235 9.4 101180 75
2004-03-19 10:08 51°13.555 2°31.206 14.1 217 9.4 101180 75
2004-03-19 10:09 51°13.61 2°31.255 13.1 199 9.4 101190 75
2004-03-19 10:10 51°13.66 2°31.34 16.2 143 9.5 101220 75
2004-03-19 10:11 51°13.682 2°31.441 16.7 109 9.5 101210 75
2004-03-19 10:12 51°13.688 2°31.527 17 86 9.4 101190 75
2004-03-19 10:13 51°13.653 2°31.637 19 43 9.3 101150 75
2004-03-19 10:14 51°13.536 2°31.673 22.2 5 9.4 101150 75
2004-03-19 10:15 51°13.39 2°31.608 23.9 10 9.5 101160 74
2004-03-19 10:16 51°13.216 2°31.547 24.8 13 9.5 101160 76
2004-03-19 10:17 51°13.026 2°31.499 22.4 15 8.9 101150 80
2004-03-19 10:18 51°12.832 2°31.461 23.4 18 8.5 101150 82
2004-03-19 10:19 51°12.639 2°31.42 22.2 14 8.4 101150 82
2004-03-19 10:20 51°12.449 2°31.384 21.4 16 8.5 101140 82
2004-03-19 10:21 51°12.257 2°31.347 22.8 10 8.5 101140 81
2004-03-19 10:22 51°12.064 2°31.31 24.4 11 8.7 101140 80
2004-03-19 10:23 51°11.869 2°31.264 24.4 15 8.9 101150 79
2004-03-19 10:24 51°11.672 2°31.216 22.4 13 9 101160 79
2004-03-19 10:25 51°11.474 2°31.167 22.6 11 9 101140 78
2004-03-19 10:26 51°11.277 2°31.116 20.5 11 9.1 101120 78
2004-03-19 10:27 51°11.107 2°31.079 21 12 9 101150 79
2004-03-19 10:28 51°11.031 2°31.104 15.4 42 8.8 101130 80
2004-03-19 10:29 51°11.056 2°31.159 12.5 73 8.8 101120 79
2004-03-19 10:30 51°11.088 2°31.218 15.4 114 9 101150 78
2004-03-19 10:31 51°11.118 2°31.285 16.8 109 9.1 101150 77
2004-03-19 10:32 51°11.134 2°31.369 18 83 9.2 101160 76
2004-03-19 10:33 51°11.15 2°31.445 20.6 85 9.3 101110 76
2004-03-19 10:34 51°11.169 2°31.515 14.3 75 9.4 101120 75
2004-03-19 10:35 51°11.187 2°31.583 12.1 70 9.5 101120 74
2004-03-19 10:36 51°11.204 2°31.65 12.6 63 9.5 101130 75
2004-03-19 10:37 51°11.214 2°31.717 19.6 45 9.5 101140 75
2004-03-19 10:38 51°11.22 2°31.78 16 35 9.6 101130 74
2004-03-19 10:39 51°11.226 2°31.835 14.2 9 9.7 101140 73
2004-03-19 10:40 51°11.237 2°31.87 14.6 324 9.8 101100 73
2004-03-19 10:41 51°11.256 2°31.868 14.9 332 9.8 101120 73
2004-03-19 10:42 51°11.292 2°31.825 11.4 259 9.8 101090 73
2004-03-19 10:43 51°11.383 2°31.863 10.4 214 9.7 101150 74
2004-03-19 10:44 51°11.453 2°31.924 13.2 231 9.7 101140 74
2004-03-19 10:45 51°11.467 2°31.985 18.2 219 9.7 101110 74
2004-03-19 10:46 51°11.494 2°32.045 16.5 239 9.8 101110 73
2004-03-19 10:47 51°11.53 2°32.095 9.4 255 9.8 101090 73
2004-03-19 10:48 51°11.565 2°32.137 16.2 275 9.8 101120 73
2004-03-19 10:49 51°11.601 2°32.16 18.9 305 9.8 101100 73
2004-03-19 10:50 51°11.641 2°32.055 19.9 318 9.8 101090 73
2004-03-19 10:51 51°11.657 2°31.791 25.2 324 9.9 101070 73
2004-03-19 10:52 51°11.63 2°31.496 22.1 330 10 101060 73
2004-03-19 10:53 51°11.594 2°31.196 23.4 335 10 101070 73
2004-03-19 10:54 51°11.562 2°30.897 20.8 326 10 101060 73
2004-03-19 10:55 51°11.525 2°30.604 22.7 333 10 101050 73
2004-03-19 10:56 51°11.486 2°30.314 21.8 332 10 101040 73
2004-03-19 10:57 51°11.448 2°30.022 21.6 337 10 101050 73
2004-03-19 10:58 51°11.408 2°29.732 21.9 340 9.9 101050 74
2004-03-19 10:59 51°11.37 2°29.442 21.3 329 9.8 101060 74
2004-03-19 11:00 51°11.334 2°29.153 20.8 335 9.7 101080 75
2004-03-19 11:01 51°11.307 2°28.859 19.9 330 9.6 101060 75
2004-03-19 11:02 51°11.29 2°28.567 23.6 334 9.6 101050 75
2004-03-19 11:03 51°11.271 2°28.279 20.6 334 9.6 101050 76
2004-03-19 11:04 51°11.246 2°27.994 25.5 329 9.6 101040 76
2004-03-19 11:05 51°11.219 2°27.709 24.6 330 9.7 101040 76
2004-03-19 11:06 51°11.19 2°27.42 20.9 325 9.7 101030 76
2004-03-19 11:07 51°11.164 2°27.126 23.4 329 9.6 101030 76
2004-03-19 11:08 51°11.138 2°26.835 22.2 330 9.6 101000 76
2004-03-19 11:09 51°11.113 2°26.546 22.6 329 9.6 101000 76
2004-03-19 11:10 51°11.088 2°26.26 23.8 333 9.6 101030 76
2004-03-19 11:11 51°11.062 2°25.971 21 327 9.5 100990 78
2004-03-19 11:12 51°11.037 2°25.685 23.8 323 9.4 101020 78
2004-03-19 11:13 51°11.015 2°25.405 22 322 9.5 101020 78
2004-03-19 11:14 51°11.106 2°25.136 19.4 284 9.5 101000 78
2004-03-19 11:15 51°11.322 2°25.008 8 256 9.5 101060 78
2004-03-19 11:16 51°11.575 2°25.049 13.4 240 9.5 101060 77
2004-03-19 11:17 51°11.829 2°25.11 12 247 9.5 101070 77
2004-03-19 11:18 51°12.08 2°25.218 12.1 227 9.5 101070 77
2004-03-19 11:19 51°12.329 2°25.32 9.3 225 9.5 101070 77
2004-03-19 11:20 51°12.573 2°25.442 12.6 226 9.4 101080 78
2004-03-19 11:21 51°12.816 2°25.587 11.8 226 9.4 101070 78
2004-03-19 11:22 51°13.056 2°25.736 13.7 214 9.4 101070 78
2004-03-19 11:23 51°13.299 2°25.874 10.2 211 9.3 101070 79
2004-03-19 11:24 51°13.538 2°26.017 9.5 215 9.3 101060 79
2004-03-19 11:25 51°13.781 2°26.16 9.4 220 9.3 101060 79
2004-03-19 11:26 51°14.019 2°26.309 7.3 228 9.3 101070 79
2004-03-19 11:27 51°14.258 2°26.444 9.6 211 9.2 101040 80
2004-03-19 11:28 51°14.495 2°26.584 8.3 226 9.2 101050 80
2004-03-19 11:29 51°14.736 2°26.722 7.4 231 9.2 101050 80
2004-03-19 11:30 51°14.938 2°26.858 7.4 189 9.2 101060 80
2004-03-19 11:31 51°15.05 2°26.975 10.8 177 9.3 101060 80
2004-03-19 11:32 51°15.104 2°27.081 20.2 125 9.4 101010 80
2004-03-19 11:33 51°15.131 2°27.148 20.3 97 9.3 100990 80
2004-03-19 11:34 51°15.162 2°27.201 19.4 109 9.2 100960 81
2004-03-19 11:35 51°15.191 2°27.257 18.1 105 9.2 100960 81
2004-03-19 11:36 51°15.22 2°27.314 17.9 105 9.2 100940 81
2004-03-19 11:37 51°15.248 2°27.372 15.5 102 9.1 100950 81
2004-03-19 11:38 51°15.271 2°27.435 19.3 87 9.1 100940 82
2004-03-19 11:39 51°15.287 2°27.506 19.8 93 9.1 100920 82
2004-03-19 11:40 51°15.303 2°27.577 20.8 93 9 100960 82
2004-03-19 11:41 51°15.316 2°27.657 21 90 9.1 100910 82
2004-03-19 11:42 51°15.324 2°27.736 20.5 85 9.1 100930 82
2004-03-19 11:43 51°15.333 2°27.811 12.8 79 9.1 100920 83
2004-03-19 11:44 51°15.34 2°27.886 15.2 77 9 100930 83
2004-03-19 11:45 51°15.351 2°27.963 15.3 74 9 100920 84
2004-03-19 11:46 51°15.36 2°28.041 19.9 80 8.9 100900 85
2004-03-19 11:47 51°15.369 2°28.116 18.7 70 8.9 100900 85
2004-03-19 11:48 51°15.382 2°28.19 17.5 72 9 100900 85
2004-03-19 11:49 51°15.395 2°28.26 17.2 74 9 100920 85
2004-03-19 11:50 51°15.387 2°28.402 14.6 108 9 100960 84
2004-03-19 11:51 51°15.395 2°28.553 15.7 108 8.9 100950 84
2004-03-19 11:52 51°15.407 2°28.7 15.5 119 8.9 100970 84
2004-03-19 11:53 51°15.429 2°28.876 17.3 120 8.9 100950 84
2004-03-19 11:54 51°15.534 2°29.176 11 128 9 100970 84
2004-03-19 11:55 51°15.664 2°29.541 12 122 9 100970 84
2004-03-19 11:56 51°15.759 2°29.932 14 134 9.1 100950 84
2004-03-19 11:57 51°15.847 2°30.346 14.4 124 9.1 100940 83
2004-03-19 11:58 51°15.932 2°30.749 13.7 122 9.1 100940 83
2004-03-19 11:59 51°16.011 2°31.151 14.8 132 9.2 100950 83
2004-03-19 12:00 51°16.068 2°31.557 13.2 108 9.2 100940 82
2004-03-19 12:01 51°16.107 2°31.971 15.8 114 9.3 100920 82
2004-03-19 12:02 51°16.109 2°32.375 19 87 9.3 100900 82
2004-03-19 12:03 51°16.06 2°32.768 18.3 91 9.3 100880 82
2004-03-19 12:04 51°15.999 2°33.152 21.3 84 9.3 100870 82
2004-03-19 12:05 51°15.913 2°33.52 13.7 78 9.4 100880 82
2004-03-19 12:06 51°15.838 2°33.889 21.5 99 9.4 100870 82
2004-03-19 12:07 51°15.768 2°34.264 18.7 92 9.4 100870 81
2004-03-19 12:08 51°15.704 2°34.629 20.4 93 9.4 100900 81
2004-03-19 12:09 51°15.643 2°34.997 18.1 89 9.2 100870 84
2004-03-19 12:10 51°15.582 2°35.367 22.1 88 9 100910 85
2004-03-19 12:11 51°15.516 2°35.735 21.7 93 8.9 100900 85
2004-03-19 12:12 51°15.445 2°36.101 15.1 71 9 100880 85
2004-03-19 12:13 51°15.373 2°36.465 18.1 86 9.1 100890 84
2004-03-19 12:14 51°15.288 2°36.825 21.1 82 9.1 100900 84
2004-03-19 12:15 51°15.202 2°37.181 19.8 86 9.2 100890 84
2004-03-19 12:16 51°15.11 2°37.539 22.7 90 9.2 100900 83
2004-03-19 12:17 51°15.011 2°37.896 20.5 88 9.2 100890 83
2004-03-19 12:18 51°14.922 2°38.256 17.4 84 9.3 100890 83
2004-03-19 12:19 51°14.832 2°38.609 16.8 81 9.3 100900 83
2004-03-19 12:20 51°14.743 2°38.963 12.6 79 9.4 100890 83
2004-03-19 12:21 51°14.65 2°39.314 19.5 82 9.4 100890 83
2004-03-19 12:22 51°14.563 2°39.668 19.8 84 9.4 100880 83
2004-03-19 12:23 51°14.467 2°40.015 20.7 82 9.4 100890 83
2004-03-19 12:24 51°14.391 2°40.377 17.7 88 9.4 100900 83
2004-03-19 12:25 51°14.332 2°40.753 18.8 99 9.4 100910 83
2004-03-19 12:26 51°14.269 2°41.125 22.8 86 9.4 100900 83
2004-03-19 12:27 51°14.209 2°41.49 15.5 97 9.4 100900 83
2004-03-19 12:28 51°14.196 2°41.879 15.3 118 9.5 100920 83
2004-03-19 12:29 51°14.234 2°42.273 14.7 110 9.5 100930 83
2004-03-19 12:30 51°14.271 2°42.68 15.8 121 9.5 100930 83
2004-03-19 12:31 51°14.317 2°43.079 16.9 125 9.5 100910 83
2004-03-19 12:32 51°14.368 2°43.476 19.5 104 9.6 100930 83
2004-03-19 12:33 51°14.41 2°43.879 13 107 9.7 100910 83
2004-03-19 12:34 51°14.453 2°44.28 11.6 115 9.7 100890 83
2004-03-19 12:35 51°14.511 2°44.672 14.6 110 9.7 100900 82
2004-03-19 12:36 51°14.567 2°45.066 13.8 126 9.7 100920 82
2004-03-19 12:37 51°14.624 2°45.458 16.3 118 9.7 100900 82
2004-03-19 12:38 51°14.665 2°45.857 11.8 122 9.7 100900 82
2004-03-19 12:39 51°14.731 2°46.237 12.4 129 9.8 100910 82
2004-03-19 12:40 51°14.779 2°46.62 14.5 117 9.8 100910 82
2004-03-19 12:41 51°14.823 2°47.013 13.1 114 9.8 100880 82
2004-03-19 12:42 51°14.897 2°47.398 15.4 129 9.8 100900 82
2004-03-19 12:43 51°14.967 2°47.795 16.1 117 9.8 100910 82
2004-03-19 12:44 51°15.033 2°48.188 15.1 118 9.9 100910 82
2004-03-19 12:45 51°15.1 2°48.574 14.6 124 9.9 100910 82
2004-03-19 12:46 51°15.163 2°48.96 15.5 115 9.9 100900 82
2004-03-19 12:47 51°15.236 2°49.35 16.4 128 9.8 100900 82
2004-03-19 12:48 51°15.3 2°49.74 14.3 123 9.9 100880 82
2004-03-19 12:49 51°15.353 2°50.133 14.1 123 9.9 100860 82
2004-03-19 12:50 51°15.398 2°50.534 13.6 110 9.9 100860 81
2004-03-19 12:51 51°15.425 2°50.933 16.1 97 10 100860 82
2004-03-19 12:52 51°15.428 2°51.338 14.1 99 9.9 100860 81
2004-03-19 12:53 51°15.402 2°51.728 15.5 79 10 100810 82
2004-03-19 12:54 51°15.3 2°52.064 18.2 70 10 100800 81
2004-03-19 12:55 51°15.192 2°52.388 17.2 79 10.1 100780 82
2004-03-19 12:56 51°15.086 2°52.722 19.3 80 10.1 100790 82
2004-03-19 12:57 51°14.989 2°53.061 21 90 10 100770 83
2004-03-19 12:58 51°14.885 2°53.394 20.6 72 9.9 100780 83
2004-03-19 12:59 51°14.777 2°53.726 14.4 73 9.9 100780 84
2004-03-19 13:00 51°14.676 2°54.068 18.8 68 9.9 100750 85
2004-03-19 13:01 51°14.577 2°54.412 16 78 9.8 100800 87
2004-03-19 13:02 51°14.471 2°54.751 15.1 76 9.7 100790 88
2004-03-19 13:03 51°14.369 2°55.053 18.3 63 9.7 100790 90
2004-03-19 13:04 51°14.261 2°55.271 14.7 50 9.7 100840 90
2004-03-19 13:05 51°14.156 2°55.388 10.5 14 9.8 100860 91
2004-03-19 13:06 51°14.053 2°55.469 12.8 28 9.8 100840 90